Pagina principale
METAR-TAF:

METAR-TAF

Aeroporti :

Aeroporto di Cuneo-Levaldigi

Cuneo, Italia

latitudine: 44-32-47N, longitudine: 007-37-20E, altezza: 386 m

Osservazione

Il bollettino è stato emesso 59 minuti fa, alle 12:50 UTC
Vento 4 kt da nord/nord-est, variando fra ovest/nord-ovest e est
Temperature 14°C
Umidità 31%
Pressione 1033 hPa
Visibilità 10 km o più

METAR: LIMZ 021250Z AUTO 03004KT 300V090 9999 NCD 14/M03 Q1033

Ora: 14:49 (13:49 UTC)

Previsione

Il bollettino è stato emesso 2 ore e 49 minuti fa, alle 11:00 UTC
Previsione valida dal 02 alle 12 UTC al 03 alle 12 UTC
Vento 3 kt da direzioni variabili
Visibilità 10 km o più
nessuna nube inferiore a 1500 m e nessun cumulonembo

TAF: LIMZ 021100Z 0212/0312 VRB03KT CAVOK

Osservazioni e previsioni meteorologiche di più di 4000 aeroporti (messaggi METAR e TAF).

Le stazioni disponibili sono rappresentate dai dischi gialli e rossi sulla carta.

Puntare il mouse per vedere il nome della stazione.

Clicca sopra per visualizzare le osservazioni e previsioni meteorologiche.

Per cambiare la mappa : fare clic sui pulsanti verdi con una croce nera per ingrandire, il pulsante verde con un trattino per diminuire, o sulla freccia verde per le mappe adiacenti.


METAR-TAF: